Time;durP1;ratioP1;P1;durP2;ratioP2;P2;SDS_P1;SDS_P2;PMS_P1;PMS_P2;Temp;Humidity;BMP_temperature;BMP_pressure;BME280_temperature;BME280_humidity;BME280_pressure;Samples;Min_cycle;Max_cycle;Signal;HPM_P1;HPM_P2
2023/10/06 00:01:33;;;;;;;;;;;;;;;;;;4980891;28;20394;-95
2023/10/06 00:04:06;;;;;;;0.10;0.10;;;;;;;;;;4995023;28;19969;-95
2023/10/06 00:06:33;;;;;;;0.15;0.15;;;;;;;;;;4980147;28;20034;-95
2023/10/06 00:08:59;;;;;;;0.30;0.30;;;;;;;;;;4979320;28;20053;-95
2023/10/06 00:11:37;;;;;;;0.10;0.10;;;;;;;;;;4979047;28;20140;-94
2023/10/06 00:14:18;;;;;;;0.10;0.10;;;;;;;;;;4979294;28;20203;-96
2023/10/06 00:16:44;;;;;;;0.10;0.10;;;;;;;;;;4981405;28;20042;-96
2023/10/06 00:19:31;;;;;;;0.10;0.10;;;;;;;;;;4979838;28;20043;-95
2023/10/06 00:24:37;;;;;;;0.10;0.10;;;;;;;;;;4997470;28;20038;-96
2023/10/06 00:27:18;;;;;;;0.10;0.10;;;;;;;;;;4980272;28;20042;-95
2023/10/06 00:29:48;;;;;;;0.10;0.10;;;;;;;;;;4980274;28;20073;-95
2023/10/06 00:32:22;;;;;;;0.20;0.20;;;;;;;;;;4979378;28;20038;-95
2023/10/06 00:34:55;;;;;;;0.10;0.10;;;;;;;;;;4979788;28;20082;-95
2023/10/06 00:37:24;;;;;;;0.10;0.10;;;;;;;;;;4979223;28;20050;-96
2023/10/06 00:39:50;;;;;;;0.20;0.20;;;;;;;;;;4979154;28;20552;-96
2023/10/06 00:42:22;;;;;;;0.10;0.10;;;;;;;;;;4978887;28;20081;-96
2023/10/06 00:44:51;;;;;;;0.10;0.10;;;;;;;;;;4979823;28;20125;-95
2023/10/06 00:47:30;;;;;;;0.10;0.10;;;;;;;;;;4984994;28;20052;-96
2023/10/06 00:50:05;;;;;;;0.10;0.10;;;;;;;;;;5002135;28;20089;-96
2023/10/06 00:52:34;;;;;;;0.20;0.20;;;;;;;;;;4984997;28;20078;-96
2023/10/06 00:55:10;;;;;;;0.10;0.10;;;;;;;;;;4979780;28;20206;-96
2023/10/06 00:57:43;;;;;;;0.10;0.10;;;;;;;;;;4981464;28;20038;-96
2023/10/06 01:00:20;;;;;;;0.15;0.15;;;;;;;;;;4981248;28;20522;-96
2023/10/06 01:02:47;;;;;;;0.10;0.10;;;;;;;;;;4981004;28;20042;-93
2023/10/06 01:05:22;;;;;;;0.20;0.20;;;;;;;;;;4982272;28;20090;-96
2023/10/06 01:07:56;;;;;;;0.10;0.10;;;;;;;;;;4999856;28;20042;-96
2023/10/06 01:10:27;;;;;;;0.15;0.15;;;;;;;;;;4982003;28;20498;-96
2023/10/06 01:12:54;;;;;;;0.10;0.10;;;;;;;;;;4963936;28;20061;-96
2023/10/06 01:15:20;;;;;;;0.10;0.10;;;;;;;;;;4978677;28;20066;-96
2023/10/06 01:17:53;;;;;;;0.10;0.10;;;;;;;;;;4979058;28;20042;-96
2023/10/06 01:20:38;;;;;;;0.10;0.10;;;;;;;;;;4996742;28;20046;-96
2023/10/06 01:23:15;;;;;;;0.10;0.10;;;;;;;;;;4980441;28;20046;-93
2023/10/06 01:25:43;;;;;;;0.10;0.10;;;;;;;;;;4980121;28;20042;-96
2023/10/06 01:28:12;;;;;;;0.10;0.10;;;;;;;;;;4977633;28;20050;-96
2023/10/06 01:30:41;;;;;;;0.10;0.10;;;;;;;;;;4978759;28;20168;-96
2023/10/06 01:33:07;;;;;;;0.10;0.10;;;;;;;;;;4978517;28;20057;-96
2023/10/06 01:35:40;;;;;;;0.10;0.10;;;;;;;;;;4991183;28;20137;-96
2023/10/06 01:38:36;;;;;;;0.10;0.10;;;;;;;;;;4979966;28;20042;-96
2023/10/06 01:41:12;;;;;;;0.10;0.10;;;;;;;;;;5010887;28;20092;-96
2023/10/06 01:43:44;;;;;;;0.20;0.20;;;;;;;;;;4980007;28;20100;-96
2023/10/06 01:46:28;;;;;;;0.20;0.20;;;;;;;;;;4979871;28;20041;-96
2023/10/06 01:48:57;;;;;;;0.20;0.20;;;;;;;;;;4978798;28;20046;-96
2023/10/06 01:51:35;;;;;;;0.10;0.10;;;;;;;;;;4978658;28;20056;-96
2023/10/06 01:54:02;;;;;;;0.15;0.15;;;;;;;;;;4977935;28;20177;-95
2023/10/06 01:56:45;;;;;;;;;;;;;;;;;;;;;
2023/10/06 01:59:17;;;;;;;0.10;0.10;;;;;;;;;;4979787;28;20121;-96
2023/10/06 02:01:48;;;;;;;0.30;0.30;;;;;;;;;;4978729;28;20125;-95
2023/10/06 02:04:19;;;;;;;0.10;0.10;;;;;;;;;;4977986;28;20061;-96
2023/10/06 02:06:52;;;;;;;0.10;0.10;;;;;;;;;;4978216;28;20042;-96
2023/10/06 02:09:18;;;;;;;0.10;0.10;;;;;;;;;;4979211;28;20045;-96
2023/10/06 02:11:50;;;;;;;0.10;0.10;;;;;;;;;;4978906;28;20538;-96
2023/10/06 02:14:17;;;;;;;0.10;0.10;;;;;;;;;;4976739;28;20042;-95
2023/10/06 02:16:44;;;;;;;0.10;0.10;;;;;;;;;;4979587;28;20084;-94
2023/10/06 02:19:10;;;;;;;0.20;0.20;;;;;;;;;;4979899;28;20047;-93
2023/10/06 02:21:42;;;;;;;0.40;0.40;;;;;;;;;;4977603;28;20038;-94
2023/10/06 02:24:08;;;;;;;0.10;0.10;;;;;;;;;;4977503;28;20035;-94
2023/10/06 02:26:38;;;;;;;0.10;0.10;;;;;;;;;;4979282;28;20387;-95
2023/10/06 02:29:26;;;;;;;0.10;0.10;;;;;;;;;;4979046;28;20038;-95
2023/10/06 02:32:00;;;;;;;0.10;0.10;;;;;;;;;;4980723;28;20065;-96
2023/10/06 02:34:35;;;;;;;0.20;0.20;;;;;;;;;;4979434;28;20097;-96
2023/10/06 02:37:07;;;;;;;0.30;0.30;;;;;;;;;;4997815;28;20424;-96
2023/10/06 02:39:37;;;;;;;0.17;0.17;;;;;;;;;;4982251;28;20080;-96
2023/10/06 02:42:41;;;;;;;0.10;0.10;;;;;;;;;;4984557;28;20035;-96
2023/10/06 02:44:58;;;;;;;0.10;0.10;;;;;;;;;;4984597;28;20044;-95
2023/10/06 02:47:36;;;;;;;0.10;0.10;;;;;;;;;;4983129;28;20042;-94
2023/10/06 02:50:07;;;;;;;0.10;0.10;;;;;;;;;;4976464;28;20484;-94
2023/10/06 02:52:38;;;;;;;0.40;0.40;;;;;;;;;;4977010;28;20045;-96
2023/10/06 02:57:35;;;;;;;0.10;0.10;;;;;;;;;;4992869;28;20510;-95
2023/10/06 03:02:55;;;;;;;0.10;0.10;;;;;;;;;;4995394;28;20042;-95
2023/10/06 03:05:32;;;;;;;0.10;0.10;;;;;;;;;;4978534;28;20046;-96
2023/10/06 03:08:00;;;;;;;0.20;0.20;;;;;;;;;;4982558;28;20046;-95
2023/10/06 03:10:35;;;;;;;0.10;0.10;;;;;;;;;;4981205;28;20050;-96
2023/10/06 03:13:28;;;;;;;;;;;;;;;;;;;;;
2023/10/06 03:16:19;;;;;;;0.10;0.10;;;;;;;;;;5012540;28;20073;-96
2023/10/06 03:19:12;;;;;;;0.10;0.10;;;;;;;;;;5014812;28;20042;-95
2023/10/06 03:21:45;;;;;;;0.10;0.10;;;;;;;;;;5013805;28;20050;-96
2023/10/06 03:24:21;;;;;;;0.30;0.30;;;;;;;;;;4992309;28;20042;-94
2023/10/06 03:27:15;;;;;;;0.10;0.10;;;;;;;;;;4998015;28;20042;-96
2023/10/06 03:30:18;;;;;;;0.20;0.20;;;;;;;;;;4929025;29;20048;-96
2023/10/06 03:33:00;;;;;;;0.13;0.13;;;;;;;;;;5017576;28;20060;-94
2023/10/06 03:36:01;;;;;;;0.10;0.10;;;;;;;;;;4996436;28;20076;-96
2023/10/06 03:38:36;;;;;;;0.10;0.10;;;;;;;;;;4988832;28;20085;-96
2023/10/06 03:44:11;;;;;;;0.10;0.10;;;;;;;;;;4966904;28;20047;-95
2023/10/06 03:46:58;;;;;;;0.10;0.10;;;;;;;;;;4967904;28;20042;-96
2023/10/06 03:49:33;;;;;;;0.10;0.10;;;;;;;;;;4992245;28;20042;-95
2023/10/06 03:51:59;;;;;;;0.10;0.10;;;;;;;;;;4981069;28;20042;-96
2023/10/06 03:54:25;;;;;;;0.30;0.30;;;;;;;;;;4979339;28;20038;-95
2023/10/06 03:56:51;;;;;;;0.10;0.10;;;;;;;;;;4979598;28;20105;-96
2023/10/06 03:59:17;;;;;;;0.10;0.10;;;;;;;;;;4980027;28;20124;-94
2023/10/06 04:01:46;;;;;;;0.55;0.20;;;;;;;;;;4979311;28;20042;-94
2023/10/06 04:04:15;;;;;;;0.10;0.10;;;;;;;;;;4986329;28;20046;-96
2023/10/06 04:06:49;;;;;;;0.10;0.10;;;;;;;;;;4985999;28;20040;-95
2023/10/06 04:09:28;;;;;;;0.13;0.13;;;;;;;;;;4983325;28;20061;-93
2023/10/06 04:15:33;;;;;;;0.30;0.30;;;;;;;;;;5005333;28;20466;-96
2023/10/06 04:18:09;;;;;;;0.10;0.10;;;;;;;;;;4979575;28;20233;-96
2023/10/06 04:20:45;;;;;;;0.20;0.20;;;;;;;;;;4997140;28;20077;-96
2023/10/06 04:23:16;;;;;;;0.10;0.10;;;;;;;;;;4981350;28;20143;-96
2023/10/06 04:25:45;;;;;;;0.20;0.20;;;;;;;;;;4980079;28;20070;-96
2023/10/06 04:28:15;;;;;;;0.10;0.10;;;;;;;;;;4979972;28;20084;-93
2023/10/06 04:30:43;;;;;;;0.10;0.10;;;;;;;;;;4979320;28;20046;-94
2023/10/06 04:33:13;;;;;;;0.57;0.17;;;;;;;;;;4979120;28;20049;-94
2023/10/06 04:35:40;;;;;;;0.10;0.10;;;;;;;;;;4979396;28;20129;-95
2023/10/06 04:38:12;;;;;;;0.10;0.10;;;;;;;;;;4994940;28;20173;-95
2023/10/06 04:40:40;;;;;;;0.17;0.17;;;;;;;;;;4981955;28;20065;-95
2023/10/06 04:43:13;;;;;;;0.20;0.20;;;;;;;;;;4978640;28;20056;-96
2023/10/06 04:45:47;;;;;;;0.10;0.10;;;;;;;;;;4979412;28;20038;-96
2023/10/06 04:48:18;;;;;;;0.10;0.10;;;;;;;;;;4980695;28;20046;-96
2023/10/06 04:50:51;;;;;;;0.10;0.10;;;;;;;;;;4979955;28;20499;-96
2023/10/06 04:53:19;;;;;;;0.10;0.10;;;;;;;;;;4980247;28;20384;-96
2023/10/06 04:55:45;;;;;;;0.70;0.20;;;;;;;;;;4979357;28;20074;-96
2023/10/06 04:58:20;;;;;;;0.10;0.10;;;;;;;;;;4979095;28;20038;-96
2023/10/06 05:00:52;;;;;;;0.10;0.10;;;;;;;;;;4980394;28;20081;-95
2023/10/06 05:03:27;;;;;;;0.10;0.10;;;;;;;;;;4980202;28;20113;-96
2023/10/06 05:05:56;;;;;;;0.10;0.10;;;;;;;;;;4980101;28;20034;-94
2023/10/06 05:08:46;;;;;;;0.10;0.10;;;;;;;;;;4980069;28;20037;-96
2023/10/06 05:11:17;;;;;;;0.10;0.10;;;;;;;;;;4995715;28;20039;-95
2023/10/06 05:13:57;;;;;;;0.10;0.10;;;;;;;;;;4982241;28;20384;-96
2023/10/06 05:16:28;;;;;;;0.40;0.40;;;;;;;;;;4964918;28;20039;-95
2023/10/06 05:18:59;;;;;;;0.10;0.10;;;;;;;;;;4965573;28;20049;-96
2023/10/06 05:21:28;;;;;;;0.15;0.15;;;;;;;;;;4966710;28;20109;-96
2023/10/06 05:24:02;;;;;;;0.20;0.20;;;;;;;;;;4982544;28;20140;-96
2023/10/06 05:26:43;;;;;;;0.10;0.10;;;;;;;;;;4969314;28;20070;-96
2023/10/06 05:29:14;;;;;;;0.10;0.10;;;;;;;;;;4965467;28;20049;-96
2023/10/06 06:33:25;;;;;;;0.65;0.65;;;;;;;;;;5352522;22;20069;-94
2023/10/06 06:44:51;;;;;;;0.10;0.10;;;;;;;;;;5311370;22;20100;-96
2023/10/06 06:48:02;;;;;;;0.20;0.20;;;;;;;;;;5514005;22;20053;-94
2023/10/06 08:20:51;;;;;;;0.20;0.20;;;;;;;;;;4994339;28;20097;-93
2023/10/06 08:23:50;;;;;;;0.32;0.32;;;;;;;;;;4965141;28;20049;-96
2023/10/06 08:26:16;;;;;;;0.10;0.10;;;;;;;;;;4950296;28;20054;-96
2023/10/06 08:29:29;;;;;;;;;;;;;;;;;;;;;
2023/10/06 08:32:39;;;;;;;;;;;;;;;;;;;;;
2023/10/06 08:46:47;;;;;;;;;;;;;;;;;;;;;
2023/10/06 08:53:06;;;;;;;;;;;;;;;;;;;;;
2023/10/06 08:56:43;;;;;;;;;;;;;;;;;;;;;
2023/10/06 08:59:53;;;;;;;0.10;0.10;;;;;;;;;;4833667;29;20064;-94
2023/10/06 09:07:49;;;;;;;0.10;0.10;;;;;;;;;;4981375;28;20076;-95
2023/10/06 09:19:52;;;;;;;0.20;0.20;;;;;;;;;;5019283;28;20053;-96
2023/10/06 09:22:18;;;;;;;0.10;0.10;;;;;;;;;;5010926;23;20059;-94
2023/10/06 09:24:59;;;;;;;0.10;0.10;;;;;;;;;;4923439;29;20058;-95
2023/10/06 09:27:53;;;;;;;0.10;0.10;;;;;;;;;;4928270;29;20144;-95
2023/10/06 09:30:21;;;;;;;0.10;0.10;;;;;;;;;;4904416;29;20032;-94
2023/10/06 09:32:50;;;;;;;0.10;0.10;;;;;;;;;;4910535;29;20043;-93
2023/10/06 09:57:55;;;;;;;0.30;0.30;;;;;;;;;;4942605;29;20075;-95
2023/10/06 10:03:40;;;;;;;0.10;0.10;;;;;;;;;;4909365;29;20053;-96
2023/10/06 10:06:11;;;;;;;0.45;0.45;;;;;;;;;;4932021;29;20085;-95
2023/10/06 10:09:19;;;;;;;;;;;;;;;;;;;;;
2023/10/06 10:12:01;;;;;;;0.20;0.20;;;;;;;;;;4951018;29;20053;-94
2023/10/06 10:14:34;;;;;;;0.20;0.20;;;;;;;;;;4922733;29;20070;-93
2023/10/06 10:17:13;;;;;;;0.20;0.20;;;;;;;;;;4923561;29;20047;-93
2023/10/06 10:19:39;;;;;;;0.10;0.10;;;;;;;;;;4938821;29;20046;-92
2023/10/06 10:22:11;;;;;;;0.20;0.20;;;;;;;;;;4923295;29;20043;-93
2023/10/06 10:24:40;;;;;;;0.10;0.10;;;;;;;;;;4923775;29;20043;-92
2023/10/06 10:27:12;;;;;;;0.20;0.20;;;;;;;;;;4923582;29;20062;-90
2023/10/06 10:29:40;;;;;;;0.10;0.10;;;;;;;;;;4922943;29;20111;-88
2023/10/06 10:32:13;;;;;;;0.10;0.10;;;;;;;;;;4921928;29;20051;-89
2023/10/06 10:34:58;;;;;;;0.20;0.20;;;;;;;;;;4921333;29;20066;-88
2023/10/06 10:37:28;;;;;;;0.20;0.20;;;;;;;;;;4937640;29;20439;-88
2023/10/06 10:39:55;;;;;;;0.20;0.20;;;;;;;;;;4921470;29;20130;-90
2023/10/06 10:42:22;;;;;;;0.10;0.10;;;;;;;;;;4922198;29;20044;-91
2023/10/06 10:45:14;;;;;;;0.20;0.20;;;;;;;;;;4922481;29;20043;-92
2023/10/06 10:47:40;;;;;;;0.10;0.10;;;;;;;;;;4937928;29;20484;-91
2023/10/06 10:50:07;;;;;;;0.10;0.10;;;;;;;;;;4922773;29;20095;-92
2023/10/06 10:52:33;;;;;;;0.30;0.30;;;;;;;;;;4922403;29;20388;-92
2023/10/06 10:55:00;;;;;;;0.60;0.60;;;;;;;;;;4921967;29;20043;-93
2023/10/06 10:57:26;;;;;;;0.20;0.20;;;;;;;;;;4937469;29;20047;-92
2023/10/06 11:02:36;;;;;;;0.10;0.10;;;;;;;;;;4922656;29;20374;-91
2023/10/06 11:05:02;;;;;;;0.13;0.13;;;;;;;;;;4921001;29;20154;-90
2023/10/06 11:07:28;;;;;;;0.35;0.35;;;;;;;;;;4921449;29;20197;-90
2023/10/06 11:09:54;;;;;;;0.20;0.20;;;;;;;;;;4921616;29;20109;-90
2023/10/06 11:12:21;;;;;;;0.13;0.13;;;;;;;;;;4921908;29;20384;-91
2023/10/06 11:14:49;;;;;;;0.20;0.20;;;;;;;;;;4921598;29;20122;-92
2023/10/06 11:17:18;;;;;;;0.10;0.10;;;;;;;;;;4922347;29;20123;-92
2023/10/06 11:19:47;;;;;;;0.10;0.10;;;;;;;;;;4921820;29;20045;-93
2023/10/06 11:25:10;;;;;;;0.10;0.10;;;;;;;;;;4946154;28;20044;-93
2023/10/06 11:27:39;;;;;;;0.10;0.10;;;;;;;;;;4924766;29;20099;-90
2023/10/06 11:30:11;;;;;;;0.10;0.10;;;;;;;;;;4925859;29;20091;-93
2023/10/06 11:32:37;;;;;;;0.10;0.10;;;;;;;;;;4926137;29;20106;-93
2023/10/06 11:35:04;;;;;;;0.10;0.10;;;;;;;;;;4925845;29;20388;-91
2023/10/06 11:37:30;;;;;;;0.20;0.20;;;;;;;;;;4924287;29;20441;-91
2023/10/06 11:39:57;;;;;;;0.20;0.20;;;;;;;;;;4927350;29;20145;-94
2023/10/06 11:42:32;;;;;;;0.20;0.20;;;;;;;;;;5097392;23;20022;-94
2023/10/06 11:44:59;;;;;;;0.10;0.10;;;;;;;;;;4923696;29;20231;-96
2023/10/06 11:47:35;;;;;;;0.40;0.40;;;;;;;;;;4907872;29;20131;-93
2023/10/06 11:50:08;;;;;;;0.10;0.10;;;;;;;;;;4925768;29;20148;-95
2023/10/06 11:52:34;;;;;;;0.10;0.10;;;;;;;;;;4908372;29;20078;-91
2023/10/06 11:55:08;;;;;;;0.10;0.10;;;;;;;;;;4905628;29;20051;-91
2023/10/06 11:57:47;;;;;;;0.20;0.20;;;;;;;;;;4905801;29;20060;-91
2023/10/06 12:00:19;;;;;;;0.20;0.20;;;;;;;;;;4905698;29;20047;-92
2023/10/06 12:02:45;;;;;;;0.10;0.10;;;;;;;;;;4904716;29;20404;-91
2023/10/06 12:05:13;;;;;;;0.13;0.13;;;;;;;;;;4905141;29;20031;-91
2023/10/06 12:07:41;;;;;;;0.32;0.32;;;;;;;;;;4905189;29;20477;-92
2023/10/06 12:10:08;;;;;;;0.10;0.10;;;;;;;;;;4904881;29;20046;-91
2023/10/06 12:12:34;;;;;;;0.10;0.10;;;;;;;;;;4905531;29;20047;-91
2023/10/06 12:15:01;;;;;;;0.90;0.90;;;;;;;;;;4921039;29;20489;-91
2023/10/06 12:17:27;;;;;;;0.20;0.20;;;;;;;;;;4905305;29;20058;-89
2023/10/06 12:19:53;;;;;;;0.20;0.20;;;;;;;;;;4905533;29;20370;-90
2023/10/06 12:22:20;;;;;;;0.10;0.10;;;;;;;;;;4921959;29;20040;-94
2023/10/06 12:24:49;;;;;;;0.20;0.20;;;;;;;;;;4904274;29;20283;-95
2023/10/06 12:27:17;;;;;;;0.10;0.10;;;;;;;;;;4905109;29;20039;-92
2023/10/06 12:29:48;;;;;;;0.10;0.10;;;;;;;;;;4916610;29;20580;-95
2023/10/06 12:32:15;;;;;;;0.10;0.10;;;;;;;;;;4909711;29;20046;-91
2023/10/06 12:34:43;;;;;;;0.20;0.20;;;;;;;;;;4912464;29;20121;-94
2023/10/06 12:37:11;;;;;;;0.20;0.20;;;;;;;;;;4904259;29;20039;-93
2023/10/06 12:39:37;;;;;;;0.10;0.10;;;;;;;;;;4910432;29;20039;-93
2023/10/06 12:42:05;;;;;;;0.20;0.20;;;;;;;;;;4924399;29;20087;-95
2023/10/06 12:44:31;;;;;;;0.10;0.10;;;;;;;;;;4898976;29;20563;-93
2023/10/06 12:47:10;;;;;;;0.20;0.20;;;;;;;;;;4905536;29;20487;-93
2023/10/06 12:49:43;;;;;;;0.50;0.25;;;;;;;;;;4905337;29;20094;-94
2023/10/06 12:52:12;;;;;;;1.08;1.08;;;;;;;;;;4905462;29;20051;-94
2023/10/06 12:54:44;;;;;;;0.68;0.68;;;;;;;;;;4905025;29;20047;-94
2023/10/06 12:57:10;;;;;;;0.10;0.10;;;;;;;;;;4897605;29;20448;-94
2023/10/06 12:59:36;;;;;;;0.10;0.10;;;;;;;;;;4904886;29;20452;-93
2023/10/06 13:02:03;;;;;;;0.10;0.10;;;;;;;;;;4890903;29;20078;-93
2023/10/06 13:04:30;;;;;;;0.20;0.20;;;;;;;;;;4890208;29;20127;-96
2023/10/06 13:06:58;;;;;;;0.20;0.20;;;;;;;;;;4890242;29;20091;-95
2023/10/06 13:09:27;;;;;;;0.13;0.13;;;;;;;;;;4889886;29;20464;-95
2023/10/06 13:11:53;;;;;;;0.20;0.20;;;;;;;;;;4889756;29;20102;-95
2023/10/06 13:14:19;;;;;;;0.10;0.10;;;;;;;;;;4889786;29;20501;-96
2023/10/06 13:16:48;;;;;;;0.20;0.20;;;;;;;;;;4889732;29;20499;-95
2023/10/06 13:19:15;;;;;;;0.10;0.10;;;;;;;;;;4889414;29;20102;-95
2023/10/06 13:21:46;;;;;;;0.10;0.10;;;;;;;;;;4889902;29;20055;-96
2023/10/06 13:24:13;;;;;;;0.10;0.10;;;;;;;;;;4889994;29;20130;-95
2023/10/06 13:26:43;;;;;;;0.20;0.20;;;;;;;;;;4905041;29;20043;-94
2023/10/06 13:29:09;;;;;;;0.10;0.10;;;;;;;;;;4905320;29;20044;-95
2023/10/06 13:31:37;;;;;;;0.10;0.10;;;;;;;;;;4888763;29;20044;-94
2023/10/06 13:34:05;;;;;;;0.10;0.10;;;;;;;;;;4889731;29;20369;-95
2023/10/06 13:36:34;;;;;;;0.45;0.32;;;;;;;;;;4889808;29;20051;-95
2023/10/06 13:39:00;;;;;;;0.20;0.20;;;;;;;;;;4890133;29;20039;-95
2023/10/06 13:45:45;;;;;;;0.10;0.10;;;;;;;;;;4854880;29;20142;-95
2023/10/06 14:06:08;;;;;;;0.10;0.10;;;;;;;;;;4989684;28;20031;-95
2023/10/06 14:08:43;;;;;;;0.10;0.10;;;;;;;;;;4945118;28;20046;-95
2023/10/06 14:11:16;;;;;;;0.20;0.20;;;;;;;;;;4931564;28;20097;-94
2023/10/06 14:13:45;;;;;;;0.10;0.10;;;;;;;;;;4927288;28;20043;-95
2023/10/06 14:16:22;;;;;;;0.30;0.30;;;;;;;;;;4926740;28;20105;-96
2023/10/06 14:18:57;;;;;;;0.10;0.10;;;;;;;;;;4944411;28;20411;-94
2023/10/06 14:21:24;;;;;;;0.10;0.10;;;;;;;;;;4944816;28;20097;-96
2023/10/06 14:23:54;;;;;;;0.10;0.10;;;;;;;;;;4927333;28;20047;-95
2023/10/06 14:26:23;;;;;;;0.20;0.20;;;;;;;;;;5131378;23;20029;-96
2023/10/06 14:28:52;;;;;;;0.10;0.10;;;;;;;;;;4983503;28;20143;-96
2023/10/06 14:31:34;;;;;;;0.20;0.20;;;;;;;;;;4966314;28;20089;-96
2023/10/06 14:37:53;;;;;;;0.15;0.15;;;;;;;;;;5909482;23;20345;-93
2023/10/06 14:45:59;;;;;;;0.10;0.10;;;;;;;;;;5132420;23;20231;-94
2023/10/06 14:49:01;;;;;;;0.20;0.20;;;;;;;;;;4978752;28;20522;-96
2023/10/06 14:51:47;;;;;;;0.10;0.10;;;;;;;;;;4965062;28;20117;-95
2023/10/06 14:54:13;;;;;;;0.20;0.20;;;;;;;;;;4962105;28;20034;-95
2023/10/06 14:56:40;;;;;;;2.67;1.13;;;;;;;;;;4933255;28;20039;-95
2023/10/06 14:59:09;;;;;;;0.10;0.10;;;;;;;;;;4924826;28;20051;-94
2023/10/06 15:01:40;;;;;;;0.10;0.10;;;;;;;;;;4930834;28;20026;-95
2023/10/06 15:04:12;;;;;;;0.10;0.10;;;;;;;;;;4948446;28;20046;-93
2023/10/06 15:06:42;;;;;;;0.43;0.32;;;;;;;;;;4945001;28;20049;-95
2023/10/06 15:09:17;;;;;;;0.20;0.20;;;;;;;;;;4928611;28;20047;-96
2023/10/06 15:11:53;;;;;;;0.10;0.10;;;;;;;;;;4933403;28;20050;-96
2023/10/06 15:14:25;;;;;;;0.10;0.10;;;;;;;;;;4933961;28;20047;-96
2023/10/06 15:16:51;;;;;;;0.20;0.20;;;;;;;;;;4932632;28;20106;-95
2023/10/06 15:19:20;;;;;;;0.77;0.77;;;;;;;;;;4933356;28;20094;-96
2023/10/06 15:21:46;;;;;;;0.65;0.65;;;;;;;;;;4934454;28;20034;-96
2023/10/06 15:24:21;;;;;;;0.20;0.20;;;;;;;;;;4952468;29;20027;-96
2023/10/06 15:26:47;;;;;;;0.10;0.10;;;;;;;;;;4948525;29;20039;-95
2023/10/06 15:29:13;;;;;;;0.10;0.10;;;;;;;;;;4928749;29;20047;-94
2023/10/06 15:31:40;;;;;;;0.10;0.10;;;;;;;;;;4916113;29;20066;-94
2023/10/06 15:34:07;;;;;;;0.17;0.17;;;;;;;;;;4917620;28;20050;-93
2023/10/06 15:36:33;;;;;;;0.20;0.20;;;;;;;;;;4914320;29;20039;-91
2023/10/06 15:39:00;;;;;;;0.10;0.10;;;;;;;;;;4928558;29;20039;-93
2023/10/06 15:41:30;;;;;;;0.20;0.20;;;;;;;;;;4912615;28;20041;-92
2023/10/06 15:43:56;;;;;;;0.10;0.10;;;;;;;;;;4934747;28;20039;-93
2023/10/06 15:46:22;;;;;;;0.17;0.17;;;;;;;;;;4930257;29;20055;-92
2023/10/06 15:48:49;;;;;;;0.28;0.20;;;;;;;;;;4918855;29;20061;-92
2023/10/06 15:51:18;;;;;;;0.20;0.20;;;;;;;;;;4902885;29;20130;-93
2023/10/06 15:53:45;;;;;;;0.20;0.20;;;;;;;;;;4901224;29;20046;-92
2023/10/06 15:56:16;;;;;;;0.20;0.20;;;;;;;;;;4927864;29;20094;-92
2023/10/06 15:58:42;;;;;;;0.10;0.10;;;;;;;;;;4914536;29;20211;-93
2023/10/06 16:01:08;;;;;;;0.20;0.20;;;;;;;;;;4927498;29;20054;-92
2023/10/06 16:03:34;;;;;;;0.10;0.10;;;;;;;;;;4912080;29;20043;-92
2023/10/06 16:06:04;;;;;;;0.10;0.10;;;;;;;;;;4912548;29;20035;-93
2023/10/06 16:08:30;;;;;;;0.65;0.30;;;;;;;;;;4913033;29;20126;-94
2023/10/06 16:11:10;;;;;;;0.20;0.20;;;;;;;;;;4928764;29;20079;-93
2023/10/06 16:13:36;;;;;;;0.20;0.20;;;;;;;;;;4909359;29;20137;-92
2023/10/06 16:16:02;;;;;;;0.50;0.50;;;;;;;;;;4909272;29;20043;-92
2023/10/06 16:18:31;;;;;;;0.10;0.10;;;;;;;;;;4925856;29;20230;-94
2023/10/06 16:20:57;;;;;;;0.20;0.20;;;;;;;;;;4909218;29;20049;-96
2023/10/06 16:23:24;;;;;;;0.10;0.10;;;;;;;;;;4909545;29;20043;-93
2023/10/06 16:25:52;;;;;;;0.10;0.10;;;;;;;;;;4925052;29;20049;-93
2023/10/06 16:28:18;;;;;;;0.20;0.20;;;;;;;;;;4925166;29;20055;-95
2023/10/06 16:30:47;;;;;;;0.10;0.10;;;;;;;;;;4909353;29;20407;-94
2023/10/06 16:33:13;;;;;;;0.38;0.38;;;;;;;;;;4909239;29;20099;-94
2023/10/06 16:35:40;;;;;;;0.30;0.30;;;;;;;;;;4909215;29;20051;-95
2023/10/06 16:38:06;;;;;;;0.30;0.30;;;;;;;;;;4910205;29;20043;-92
2023/10/06 16:40:51;;;;;;;0.22;0.22;;;;;;;;;;4910177;29;20043;-93
2023/10/06 16:43:18;;;;;;;1.48;0.30;;;;;;;;;;4918846;29;20059;-93
2023/10/06 16:45:44;;;;;;;0.10;0.10;;;;;;;;;;4919926;28;20415;-93
2023/10/06 16:48:10;;;;;;;0.13;0.13;;;;;;;;;;4959203;28;20045;-92
2023/10/06 16:50:41;;;;;;;0.10;0.10;;;;;;;;;;4943319;28;20046;-91
2023/10/06 16:53:07;;;;;;;0.20;0.20;;;;;;;;;;4930502;28;20049;-91
2023/10/06 16:55:33;;;;;;;0.15;0.15;;;;;;;;;;4942707;28;20046;-90
2023/10/06 16:57:59;;;;;;;0.20;0.20;;;;;;;;;;4942683;28;20051;-92
2023/10/06 17:00:26;;;;;;;0.25;0.25;;;;;;;;;;4943283;28;20130;-91
2023/10/06 17:02:52;;;;;;;1.55;1.45;;;;;;;;;;4945653;28;20495;-93
2023/10/06 17:05:21;;;;;;;0.20;0.20;;;;;;;;;;4928782;28;20105;-91
2023/10/06 17:07:49;;;;;;;0.10;0.10;;;;;;;;;;4933560;28;20035;-92
2023/10/06 17:10:15;;;;;;;0.52;0.52;;;;;;;;;;4930370;28;20081;-92
2023/10/06 17:12:42;;;;;;;0.10;0.10;;;;;;;;;;4949188;28;20490;-91
2023/10/06 17:15:10;;;;;;;0.10;0.10;;;;;;;;;;4939019;28;20046;-90
2023/10/06 17:17:41;;;;;;;0.10;0.10;;;;;;;;;;4947481;28;20078;-92
2023/10/06 17:20:14;;;;;;;0.10;0.10;;;;;;;;;;4943153;28;20046;-90
2023/10/06 17:22:44;;;;;;;0.15;0.15;;;;;;;;;;4943045;28;20043;-92
2023/10/06 17:25:14;;;;;;;0.10;0.10;;;;;;;;;;4925821;28;20042;-92
2023/10/06 17:27:40;;;;;;;0.30;0.30;;;;;;;;;;4926915;28;20046;-94
2023/10/06 17:30:07;;;;;;;0.30;0.30;;;;;;;;;;4927034;28;20035;-92
2023/10/06 17:32:34;;;;;;;0.20;0.20;;;;;;;;;;4926413;28;20094;-91
2023/10/06 17:35:00;;;;;;;0.10;0.10;;;;;;;;;;4926067;28;20049;-92
2023/10/06 17:37:26;;;;;;;0.10;0.10;;;;;;;;;;4926172;28;20057;-92
2023/10/06 17:39:52;;;;;;;0.10;0.10;;;;;;;;;;4957835;28;20043;-91
2023/10/06 17:42:18;;;;;;;0.10;0.10;;;;;;;;;;4926059;28;20479;-92
2023/10/06 17:44:46;;;;;;;0.13;0.13;;;;;;;;;;4926342;28;20065;-91
2023/10/06 17:47:12;;;;;;;0.10;0.10;;;;;;;;;;4942345;28;20199;-91
2023/10/06 17:49:38;;;;;;;0.10;0.10;;;;;;;;;;4942568;28;20251;-93
2023/10/06 17:52:05;;;;;;;0.20;0.20;;;;;;;;;;4926373;28;20038;-93
2023/10/06 17:54:31;;;;;;;0.20;0.20;;;;;;;;;;4942137;28;20217;-94
2023/10/06 17:56:58;;;;;;;5.28;0.20;;;;;;;;;;4941984;28;20054;-93
2023/10/06 17:59:25;;;;;;;0.17;0.17;;;;;;;;;;4941476;28;20046;-92
2023/10/06 18:01:51;;;;;;;0.10;0.10;;;;;;;;;;4941671;28;20043;-92
2023/10/06 18:04:17;;;;;;;0.10;0.10;;;;;;;;;;4941606;28;20031;-90
2023/10/06 18:06:44;;;;;;;0.10;0.10;;;;;;;;;;4941109;28;20047;-91
2023/10/06 18:09:13;;;;;;;0.10;0.10;;;;;;;;;;4941493;28;20133;-91
2023/10/06 18:11:40;;;;;;;0.22;0.22;;;;;;;;;;4942475;28;20049;-91
2023/10/06 18:14:06;;;;;;;0.20;0.20;;;;;;;;;;4941442;28;20047;-93
2023/10/06 18:16:33;;;;;;;0.30;0.28;;;;;;;;;;4942075;28;20086;-95
2023/10/06 18:19:00;;;;;;;0.10;0.10;;;;;;;;;;4944298;28;20046;-93
2023/10/06 18:21:30;;;;;;;0.10;0.10;;;;;;;;;;4941961;28;20098;-93
2023/10/06 18:23:58;;;;;;;0.20;0.20;;;;;;;;;;4941291;28;20051;-93
2023/10/06 18:26:24;;;;;;;0.10;0.10;;;;;;;;;;4941160;28;20522;-90
2023/10/06 18:28:50;;;;;;;0.10;0.10;;;;;;;;;;4940917;28;20122;-90
2023/10/06 18:31:16;;;;;;;0.20;0.20;;;;;;;;;;4940521;28;20112;-90
2023/10/06 18:33:42;;;;;;;0.28;0.28;;;;;;;;;;4940871;28;20554;-90
2023/10/06 18:36:10;;;;;;;0.30;0.30;;;;;;;;;;4940738;28;20043;-91
2023/10/06 18:38:36;;;;;;;0.10;0.10;;;;;;;;;;4956678;28;20113;-90
2023/10/06 18:41:05;;;;;;;2.55;1.55;;;;;;;;;;4956373;28;20069;-90
2023/10/06 18:43:32;;;;;;;0.10;0.10;;;;;;;;;;4941044;28;20045;-90
2023/10/06 18:45:58;;;;;;;0.38;0.38;;;;;;;;;;4940668;28;20062;-92
2023/10/06 18:48:25;;;;;;;0.22;0.22;;;;;;;;;;4940658;28;20046;-91
2023/10/06 18:50:54;;;;;;;0.10;0.10;;;;;;;;;;4940646;28;20194;-92
2023/10/06 18:53:20;;;;;;;0.10;0.10;;;;;;;;;;4941193;28;20391;-92
2023/10/06 18:55:53;;;;;;;0.20;0.20;;;;;;;;;;4940380;28;20035;-92
2023/10/06 18:58:19;;;;;;;0.10;0.10;;;;;;;;;;4941086;28;20043;-93
2023/10/06 19:00:46;;;;;;;0.10;0.10;;;;;;;;;;4941420;28;20092;-93
2023/10/06 19:03:12;;;;;;;0.10;0.10;;;;;;;;;;4957345;28;20046;-93
2023/10/06 19:05:43;;;;;;;0.10;0.10;;;;;;;;;;4946436;29;20503;-94
2023/10/06 19:08:14;;;;;;;0.10;0.10;;;;;;;;;;4922914;29;20412;-92
2023/10/06 19:10:42;;;;;;;0.20;0.20;;;;;;;;;;4906455;29;20043;-93
2023/10/06 19:13:09;;;;;;;0.17;0.17;;;;;;;;;;4908139;28;20053;-96
2023/10/06 19:15:40;;;;;;;0.10;0.10;;;;;;;;;;4937753;28;20057;-92
2023/10/06 19:18:06;;;;;;;0.20;0.20;;;;;;;;;;4930448;28;20039;-94
2023/10/06 19:20:32;;;;;;;0.10;0.10;;;;;;;;;;4932381;28;20036;-93
2023/10/06 19:23:02;;;;;;;0.10;0.10;;;;;;;;;;4938093;28;20080;-93
2023/10/06 19:25:28;;;;;;;0.20;0.20;;;;;;;;;;4940382;28;20121;-93
2023/10/06 19:27:54;;;;;;;0.10;0.10;;;;;;;;;;4940772;28;20090;-93
2023/10/06 19:30:20;;;;;;;0.10;0.10;;;;;;;;;;4917975;29;20043;-94
2023/10/06 19:32:49;;;;;;;0.63;0.40;;;;;;;;;;4906348;29;20136;-93
2023/10/06 19:35:15;;;;;;;0.10;0.10;;;;;;;;;;4932164;28;20041;-95
2023/10/06 19:37:44;;;;;;;0.10;0.10;;;;;;;;;;4925129;28;20043;-95
2023/10/06 19:40:12;;;;;;;0.20;0.20;;;;;;;;;;4941171;28;20487;-94
2023/10/06 19:42:41;;;;;;;0.10;0.10;;;;;;;;;;4925097;28;20491;-93
2023/10/06 19:45:07;;;;;;;0.20;0.20;;;;;;;;;;4924521;28;20059;-93